Time;durP1;ratioP1;P1;durP2;ratioP2;P2;SDS_P1;SDS_P2;PMS_P1;PMS_P2;Temp;Humidity;BMP_temperature;BMP_pressure;BME280_temperature;BME280_humidity;BME280_pressure;Samples;Min_cycle;Max_cycle;Signal;HPM_P1;HPM_P2
2022/01/03 00:01:18;;;;;;;9.75;1.23;;;;;;;13.76;52.66;99155.00;5138260;28;20437;-72
2022/01/03 00:04:08;;;;;;;3.33;0.98;;;;;;;13.22;53.91;99139.22;5157833;28;20053;-72
2022/01/03 00:06:59;;;;;;;6.90;1.45;;;;;;;13.04;53.84;99119.78;5143488;28;20054;-72
2022/01/03 00:09:50;;;;;;;6.95;1.42;;;;;;;12.92;54.20;99122.72;5161326;28;20050;-72
2022/01/03 00:12:42;;;;;;;8.60;1.30;;;;;;;12.92;54.24;99130.72;5159597;28;20046;-72
2022/01/03 00:15:32;;;;;;;5.95;1.50;;;;;;;13.11;53.39;99102.19;5156400;28;20042;-72
2022/01/03 00:18:24;;;;;;;6.90;1.23;;;;;;;13.07;53.84;99100.84;5146680;28;20527;-72
2022/01/03 00:21:18;;;;;;;8.45;1.33;;;;;;;13.11;53.71;99095.06;5157306;28;20042;-72
2022/01/03 00:24:10;;;;;;;7.75;1.23;;;;;;;12.61;54.02;99066.44;5157239;28;20076;-72
2022/01/03 00:27:10;;;;;;;8.55;1.77;;;;;;;13.02;53.72;99109.31;5155901;28;20150;-72
2022/01/03 00:30:01;;;;;;;10.00;1.55;;;;;;;12.92;54.20;99111.25;5160443;28;20555;-72
2022/01/03 00:32:52;;;;;;;6.85;1.38;;;;;;;13.26;53.01;99100.66;5142986;28;20109;-72
2022/01/03 00:35:42;;;;;;;5.25;1.30;;;;;;;13.32;52.86;99077.91;5159839;28;20061;-72
2022/01/03 00:38:34;;;;;;;12.75;1.80;;;;;;;13.23;53.09;99094.78;5146600;28;20483;-71
2022/01/03 00:41:25;;;;;;;9.93;1.52;;;;;;;13.27;52.91;99099.66;5159342;28;20128;-71
2022/01/03 00:44:15;;;;;;;9.38;1.65;;;;;;;12.64;53.18;99106.03;5159124;28;20053;-70
2022/01/03 00:47:05;;;;;;;7.22;1.65;;;;;;;12.77;53.70;99148.22;5157510;28;20508;-70
2022/01/03 00:49:56;;;;;;;7.57;1.40;;;;;;;13.23;52.06;99140.06;5151110;28;20050;-71
2022/01/03 00:52:47;;;;;;;7.55;1.25;;;;;;;12.75;52.98;99139.56;5160850;28;20045;-71
2022/01/03 00:55:45;;;;;;;5.63;1.40;;;;;;;13.33;52.46;99148.81;5145336;28;20074;-71
2022/01/03 00:58:44;;;;;;;8.48;1.67;;;;;;;13.09;52.08;99136.97;5134277;28;20050;-71
2022/01/03 01:01:54;;;;;;;6.65;1.30;;;;;;;13.14;52.28;99142.69;5158826;28;20101;-70
2022/01/03 01:04:46;;;;;;;7.00;1.30;;;;;;;13.44;51.77;99132.53;5159473;28;20081;-72
2022/01/03 01:07:38;;;;;;;5.68;1.30;;;;;;;12.81;52.96;99140.75;5144095;28;20049;-70
2022/01/03 01:10:35;;;;;;;3.97;0.80;;;;;;;12.54;53.74;99125.75;5155950;28;20057;-72
2022/01/03 01:13:25;;;;;;;6.50;1.40;;;;;;;12.77;53.30;99139.41;5159242;28;20057;-72
2022/01/03 01:16:16;;;;;;;6.28;1.27;;;;;;;12.35;54.38;99154.19;5152980;28;20100;-71
2022/01/03 01:19:11;;;;;;;6.68;1.30;;;;;;;12.74;53.63;99131.72;5146173;28;20072;-71
2022/01/03 01:22:03;;;;;;;4.00;1.23;;;;;;;13.00;52.55;99129.91;5141160;28;20560;-71
2022/01/03 01:25:23;;;;;;;7.47;1.88;;;;;;;12.69;54.15;99145.50;5149855;28;20117;-71
2022/01/03 01:28:13;;;;;;;5.60;1.27;;;;;;;13.16;52.41;99131.88;5143881;28;20058;-71
2022/01/03 01:31:04;;;;;;;10.15;1.65;;;;;;;12.67;53.91;99156.28;5142964;28;20048;-70
2022/01/03 01:33:56;;;;;;;11.07;1.55;;;;;;;12.71;53.40;99140.84;5161319;28;20077;-72
2022/01/03 01:36:52;;;;;;;7.72;1.23;;;;;;;12.60;54.18;99115.31;5141378;28;20049;-72
2022/01/03 01:39:48;;;;;;;6.25;1.13;;;;;;;13.02;53.79;99151.91;5142043;28;20452;-72
2022/01/03 01:42:45;;;;;;;8.13;1.17;;;;;;;13.31;53.00;99140.97;5150571;28;20062;-72
2022/01/03 01:45:35;;;;;;;6.53;1.30;;;;;;;13.11;53.09;99150.97;5145206;28;20038;-72
2022/01/03 01:48:26;;;;;;;9.90;1.80;;;;;;;13.06;53.65;99150.59;5145881;28;20053;-72
2022/01/03 01:51:19;;;;;;;8.32;1.25;;;;;;;13.17;53.21;99158.31;5145678;28;20433;-72
2022/01/03 01:54:15;;;;;;;7.05;1.30;;;;;;;12.97;53.69;99148.88;5143760;28;20675;-72
2022/01/03 01:57:06;;;;;;;5.13;1.30;;;;;;;13.04;53.26;99133.09;5142740;28;20039;-72
2022/01/03 02:00:12;;;;;;;6.75;1.17;;;;;;;12.65;53.84;99107.72;5145048;28;20050;-72
2022/01/03 02:03:19;;;;;;;11.40;1.48;;;;;;;13.36;52.73;99148.50;5141782;28;20057;-72
2022/01/03 02:06:34;;;;;;;5.57;1.02;;;;;;;13.30;52.79;99151.78;5148261;28;20049;-72
2022/01/03 02:09:41;;;;;;;6.72;1.20;;;;;;;13.93;51.13;99156.75;5155200;28;20137;-72
2022/01/03 02:12:38;;;;;;;10.07;1.35;;;;;;;12.85;52.79;99161.59;5158287;28;20629;-71
2022/01/03 02:15:31;;;;;;;7.90;1.52;;;;;;;13.01;52.90;99154.72;5157940;28;20127;-71
2022/01/03 02:18:26;;;;;;;9.65;1.88;;;;;;;12.83;53.52;99163.56;5138297;28;20046;-71
2022/01/03 02:21:18;;;;;;;6.50;1.13;;;;;;;13.11;52.61;99150.97;5151650;28;20046;-72
2022/01/03 02:24:10;;;;;;;10.95;1.40;;;;;;;12.81;53.12;99165.53;5161639;28;20045;-71
2022/01/03 02:27:03;;;;;;;7.35;1.40;;;;;;;12.98;53.01;99161.19;5143619;28;20035;-71
2022/01/03 02:29:53;;;;;;;11.32;1.40;;;;;;;13.15;52.08;99149.66;5155795;28;20524;-71
2022/01/03 02:32:45;;;;;;;6.53;1.20;;;;;;;12.89;52.68;99156.81;5158871;28;20042;-71
2022/01/03 02:35:38;;;;;;;4.88;1.02;;;;;;;13.35;52.10;99162.81;5140572;28;20511;-71
2022/01/03 02:38:31;;;;;;;11.60;1.52;;;;;;;13.35;51.98;99170.81;5139542;28;20086;-71
2022/01/03 02:41:22;;;;;;;5.07;1.27;;;;;;;13.26;52.30;99166.41;5155789;28;20193;-71
2022/01/03 02:44:12;;;;;;;4.35;1.02;;;;;;;12.85;53.46;99164.25;5156451;28;20057;-71
2022/01/03 02:47:03;;;;;;;7.78;1.50;;;;;;;13.52;52.19;99166.41;5157997;28;20125;-71
2022/01/03 02:49:53;;;;;;;8.65;1.58;;;;;;;13.20;52.40;99167.00;5135809;28;20101;-71
2022/01/03 02:52:44;;;;;;;7.53;1.33;;;;;;;12.94;53.39;99178.44;5156752;28;20875;-70
2022/01/03 02:55:37;;;;;;;3.30;0.98;;;;;;;12.63;54.71;99170.88;5156677;28;20173;-70
2022/01/03 02:58:27;;;;;;;6.32;1.48;;;;;;;12.98;53.59;99166.53;5155217;28;20104;-71
2022/01/03 03:01:17;;;;;;;6.43;1.60;;;;;;;12.64;54.50;99185.84;5154299;28;20502;-72
2022/01/03 03:04:10;;;;;;;8.13;1.55;;;;;;;12.79;54.22;99182.66;5131940;28;20188;-71
2022/01/03 03:07:00;;;;;;;10.18;1.60;;;;;;;12.58;54.51;99191.81;5143144;28;20061;-71
2022/01/03 03:09:51;;;;;;;9.63;1.52;;;;;;;12.44;54.30;99163.06;5142818;28;20519;-71
2022/01/03 03:12:43;;;;;;;9.02;1.65;;;;;;;12.53;54.63;99194.06;5148696;28;20069;-72
2022/01/03 03:15:34;;;;;;;10.55;1.60;;;;;;;12.72;54.12;99181.63;5146699;28;20053;-72
2022/01/03 03:18:25;;;;;;;10.02;1.40;;;;;;;12.16;55.41;99187.03;5146164;28;20056;-71
2022/01/03 03:21:15;;;;;;;7.35;1.02;;;;;;;12.68;53.85;99189.03;5143592;28;20512;-72
2022/01/03 03:24:05;;;;;;;8.48;1.65;;;;;;;12.59;54.43;99188.13;5158649;28;20046;-71
2022/01/03 03:26:56;;;;;;;10.32;1.88;;;;;;;12.00;55.47;99192.16;5150952;28;20121;-70
2022/01/03 03:29:51;;;;;;;11.30;1.50;;;;;;;11.98;55.08;99199.44;5144636;28;20171;-71
2022/01/03 03:32:44;;;;;;;8.00;1.33;;;;;;;12.08;55.02;99208.19;5146839;28;20054;-70
2022/01/03 03:35:35;;;;;;;8.35;1.30;;;;;;;12.41;54.26;99193.44;5161034;28;20409;-71
2022/01/03 03:38:27;;;;;;;5.65;1.30;;;;;;;12.49;54.16;99176.75;5156475;28;20054;-70
2022/01/03 03:41:18;;;;;;;9.15;1.75;;;;;;;12.47;54.61;99194.66;5142451;28;20034;-71
2022/01/03 03:44:15;;;;;;;10.25;1.40;;;;;;;12.80;53.81;99179.84;5140946;28;20132;-71
2022/01/03 03:47:07;;;;;;;13.73;1.52;;;;;;;12.86;53.08;99197.03;5158691;28;20045;-71
2022/01/03 03:49:58;;;;;;;6.78;1.20;;;;;;;12.78;54.16;99199.59;5144590;28;20057;-71
2022/01/03 03:52:47;;;;;;;8.57;1.30;;;;;;;12.98;53.23;99190.47;5147225;28;20507;-71
2022/01/03 03:55:40;;;;;;;12.65;1.60;;;;;;;12.05;55.58;99184.56;5149600;28;20049;-71
2022/01/03 03:58:30;;;;;;;8.43;1.27;;;;;;;12.38;54.61;99185.78;5142535;28;20121;-72
2022/01/03 04:01:21;;;;;;;11.75;1.73;;;;;;;12.04;56.21;99203.31;5155596;28;20050;-70
2022/01/03 04:04:15;;;;;;;8.82;1.65;;;;;;;12.57;54.54;99168.00;5147756;28;20057;-70
2022/01/03 04:07:06;;;;;;;9.82;1.90;;;;;;;12.50;54.95;99205.00;5147080;28;20569;-70
2022/01/03 04:09:56;;;;;;;10.40;1.65;;;;;;;12.68;54.92;99202.34;5140709;28;20627;-71
2022/01/03 04:12:46;;;;;;;12.45;1.60;;;;;;;12.74;54.82;99199.06;5145037;28;20042;-70
2022/01/03 04:15:37;;;;;;;8.18;1.75;;;;;;;12.33;55.57;99203.16;5147088;28;20046;-70
2022/01/03 04:18:27;;;;;;;14.80;1.50;;;;;;;12.71;54.52;99207.34;5141688;28;20038;-70
2022/01/03 04:21:18;;;;;;;8.70;1.85;;;;;;;12.78;54.69;99189.81;5160299;28;20046;-70
2022/01/03 04:24:10;;;;;;;7.65;1.45;;;;;;;13.07;53.88;99210.00;5136911;28;20053;-71
2022/01/03 04:27:00;;;;;;;10.05;1.63;;;;;;;13.20;53.20;99220.25;5143816;28;20049;-70
2022/01/03 04:29:51;;;;;;;7.97;1.60;;;;;;;12.14;55.88;99204.09;5146983;28;20057;-71
2022/01/03 04:32:41;;;;;;;10.60;1.42;;;;;;;12.42;54.83;99218.22;5138659;28;20181;-70
2022/01/03 04:35:31;;;;;;;8.10;1.30;;;;;;;11.81;56.68;99219.63;5143582;28;20428;-71
2022/01/03 04:38:22;;;;;;;9.15;1.95;;;;;;;12.50;55.42;99223.63;5147531;28;20172;-71
2022/01/03 04:41:12;;;;;;;7.63;1.55;;;;;;;12.34;55.88;99210.16;5145610;28;20176;-71
2022/01/03 04:44:05;;;;;;;11.55;1.90;;;;;;;12.12;56.76;99222.88;5159923;28;20046;-71
2022/01/03 04:46:56;;;;;;;9.55;1.58;;;;;;;11.82;57.89;99231.06;5156162;28;20437;-71
2022/01/03 04:49:47;;;;;;;6.10;1.17;;;;;;;12.12;57.05;99236.16;5154033;28;20057;-70
2022/01/03 04:52:38;;;;;;;9.75;1.90;;;;;;;11.90;58.15;99252.50;5164576;28;20727;-71
2022/01/03 04:55:28;;;;;;;12.13;1.30;;;;;;;11.91;58.48;99265.63;5144615;28;20040;-71
2022/01/03 04:58:18;;;;;;;8.63;1.17;;;;;;;11.78;59.27;99267.72;5158263;28;20053;-71
2022/01/03 05:01:09;;;;;;;6.60;1.20;;;;;;;11.56;62.94;99279.53;5156892;28;20100;-70
2022/01/03 05:04:00;;;;;;;8.77;1.40;;;;;;;11.26;65.55;99264.66;5154014;28;20082;-71
2022/01/03 05:06:50;;;;;;;4.68;0.93;;;;;;;11.20;66.47;99267.84;5140798;28;20141;-72
2022/01/03 05:09:40;;;;;;;7.20;1.00;;;;;;;11.57;64.94;99259.13;5156397;28;20132;-71
2022/01/03 05:12:31;;;;;;;7.97;1.13;;;;;;;11.44;66.71;99251.47;5148942;28;20136;-70
2022/01/03 05:15:21;;;;;;;5.72;1.08;;;;;;;11.70;65.81;99264.97;5146246;28;20068;-70
2022/01/03 05:18:12;;;;;;;6.75;0.85;;;;;;;10.81;68.85;99266.03;5158750;28;20061;-69
2022/01/03 05:21:03;;;;;;;6.28;1.55;;;;;;;11.33;67.83;99262.25;5142655;28;20061;-72
2022/01/03 05:23:54;;;;;;;7.72;1.08;;;;;;;11.00;68.25;99273.16;5145529;28;20572;-71
2022/01/03 05:26:45;;;;;;;9.80;1.70;;;;;;;10.92;68.57;99280.97;5141877;28;20057;-69
2022/01/03 05:29:36;;;;;;;9.80;1.10;;;;;;;10.54;70.21;99265.88;5144578;28;20536;-70
2022/01/03 05:32:27;;;;;;;9.48;1.50;;;;;;;10.94;68.57;99262.28;5143745;28;20523;-70
2022/01/03 05:35:17;;;;;;;7.30;1.35;;;;;;;11.31;67.34;99253.59;5152664;28;20050;-70
2022/01/03 05:38:07;;;;;;;4.82;1.08;;;;;;;11.71;66.33;99253.34;5132704;28;20127;-71
2022/01/03 05:40:58;;;;;;;7.93;1.23;;;;;;;11.48;66.25;99253.69;5142603;28;20057;-71
2022/01/03 05:43:49;;;;;;;8.27;2.25;;;;;;;11.84;64.97;99243.28;5154844;28;20069;-71
2022/01/03 05:46:40;;;;;;;6.90;1.40;;;;;;;11.69;65.80;99244.72;5142891;28;20077;-71
2022/01/03 05:49:31;;;;;;;7.55;1.50;;;;;;;11.49;65.86;99258.03;5142525;28;20531;-71
2022/01/03 05:52:21;;;;;;;6.45;1.23;;;;;;;11.47;65.82;99249.38;5141604;28;20053;-71
2022/01/03 05:55:12;;;;;;;11.20;1.45;;;;;;;11.37;65.54;99223.81;5143368;28;20061;-71
2022/01/03 05:58:04;;;;;;;4.80;1.30;;;;;;;11.45;66.58;99271.72;5145134;28;20112;-71
2022/01/03 06:00:57;;;;;;;12.00;1.70;;;;;;;11.71;64.97;99269.28;5145682;28;20069;-71
2022/01/03 06:03:47;;;;;;;7.05;1.48;;;;;;;11.64;65.65;99266.38;5158795;28;20130;-72
2022/01/03 06:06:54;;;;;;;13.07;2.40;;;;;;;11.56;65.90;99252.16;5157845;28;20042;-71
2022/01/03 06:10:16;;;;;;;7.90;1.88;;;;;;;11.57;65.75;99262.63;5152895;28;20047;-71
2022/01/03 06:13:10;;;;;;;11.68;1.55;;;;;;;11.41;65.90;99260.56;5145602;28;20058;-71
2022/01/03 06:16:01;;;;;;;9.55;1.70;;;;;;;11.08;67.14;99253.88;5130348;28;20062;-71
2022/01/03 06:18:53;;;;;;;9.70;1.50;;;;;;;11.43;65.97;99269.22;5141121;28;20128;-71
2022/01/03 06:21:45;;;;;;;9.18;1.30;;;;;;;11.62;64.83;99270.16;5141645;28;20061;-71
2022/01/03 06:24:40;;;;;;;6.45;1.42;;;;;;;11.75;65.06;99258.25;5145883;28;21308;-73
2022/01/03 06:27:30;;;;;;;11.95;2.08;;;;;;;11.47;64.20;99248.53;5145225;28;20065;-71
2022/01/03 06:30:21;;;;;;;9.68;1.90;;;;;;;11.26;66.07;99267.31;5147906;28;20101;-71
2022/01/03 06:33:13;;;;;;;13.55;2.13;;;;;;;10.79;67.01;99249.44;5140512;28;20109;-71
2022/01/03 06:36:05;;;;;;;11.60;1.90;;;;;;;11.07;65.53;99246.91;5142734;28;20049;-71
2022/01/03 06:38:56;;;;;;;12.90;1.80;;;;;;;11.00;66.02;99241.34;5143541;28;20137;-71
2022/01/03 06:41:47;;;;;;;7.00;1.60;;;;;;;10.90;65.95;99242.31;5147563;28;20050;-71
2022/01/03 06:44:38;;;;;;;12.93;1.95;;;;;;;11.34;65.24;99234.72;5142075;28;20084;-72
2022/01/03 06:47:29;;;;;;;17.35;2.00;;;;;;;11.09;65.21;99244.94;5134966;28;20101;-70
2022/01/03 06:50:19;;;;;;;12.85;1.70;;;;;;;10.93;65.78;99231.44;5142924;28;20420;-73
2022/01/03 06:53:10;;;;;;;12.82;2.25;;;;;;;11.08;65.53;99243.28;5163411;28;20098;-71
2022/01/03 06:56:02;;;;;;;13.77;1.83;;;;;;;11.42;63.83;99238.34;5148078;28;20049;-69
2022/01/03 06:58:54;;;;;;;9.07;1.67;;;;;;;11.01;65.51;99223.59;5147902;28;20128;-72
2022/01/03 07:01:45;;;;;;;11.63;1.85;;;;;;;11.61;63.93;99248.06;5156000;28;20064;-73
2022/01/03 07:04:37;;;;;;;6.88;1.77;;;;;;;11.58;64.28;99236.91;5147197;28;20052;-73
2022/01/03 07:07:28;;;;;;;9.50;2.08;;;;;;;10.95;66.69;99232.09;5154895;28;20557;-70
2022/01/03 07:10:19;;;;;;;10.70;1.40;;;;;;;11.02;67.42;99238.53;5158638;28;20413;-70
2022/01/03 07:13:09;;;;;;;12.07;2.05;;;;;;;11.42;65.62;99245.47;5159672;28;20116;-70
2022/01/03 07:19:08;;;;;;;8.68;1.52;;;;;;;11.14;65.13;99232.09;5161139;28;20080;-71
2022/01/03 07:22:00;;;;;;;9.88;1.40;;;;;;;10.73;66.83;99243.84;5159850;28;20045;-71
2022/01/03 07:24:51;;;;;;;10.85;1.55;;;;;;;10.92;66.24;99250.97;5161176;28;20101;-70
2022/01/03 07:27:42;;;;;;;17.85;2.20;;;;;;;10.69;67.73;99259.19;5162879;28;20109;-71
2022/01/03 07:30:32;;;;;;;8.38;1.67;;;;;;;11.27;65.21;99266.31;5159398;28;20053;-70
2022/01/03 07:33:23;;;;;;;11.75;2.17;;;;;;;11.13;66.69;99262.28;5158399;28;20811;-70
2022/01/03 07:36:13;;;;;;;13.05;1.60;;;;;;;11.48;66.28;99250.19;5156536;28;20411;-71
2022/01/03 07:39:03;;;;;;;13.38;1.80;;;;;;;11.45;66.79;99251.31;5161609;28;20045;-71
2022/01/03 07:41:54;;;;;;;11.60;1.65;;;;;;;11.56;65.69;99246.84;5161609;28;20343;-71
2022/01/03 07:44:44;;;;;;;13.18;1.77;;;;;;;11.31;67.61;99227.88;5167016;28;20038;-71
2022/01/03 07:47:34;;;;;;;15.07;2.63;;;;;;;11.75;65.02;99244.09;5162817;28;20039;-71
2022/01/03 07:50:25;;;;;;;11.60;2.38;;;;;;;11.21;67.06;99229.72;5161531;28;20540;-70
2022/01/03 07:53:15;;;;;;;10.75;2.08;;;;;;;11.34;66.63;99242.69;5161932;28;20073;-71
2022/01/03 07:56:06;;;;;;;14.50;2.40;;;;;;;11.01;67.88;99220.94;5143478;28;20053;-72
2022/01/03 07:58:57;;;;;;;9.57;2.33;;;;;;;10.93;67.78;99228.78;5159770;28;20061;-73
2022/01/03 08:01:47;;;;;;;7.28;1.65;;;;;;;11.06;67.08;99218.72;5147990;28;20184;-75
2022/01/03 08:04:38;;;;;;;9.57;1.80;;;;;;;11.08;67.37;99240.63;5164716;28;20062;-71
2022/01/03 08:07:29;;;;;;;11.68;1.50;;;;;;;10.74;69.90;99250.81;5157706;28;20519;-70
2022/01/03 08:10:20;;;;;;;8.48;1.50;;;;;;;11.38;67.23;99247.56;5162009;28;20069;-73
2022/01/03 08:13:11;;;;;;;15.73;2.30;;;;;;;10.61;69.37;99218.44;5155826;28;20100;-72
2022/01/03 08:16:01;;;;;;;9.65;2.00;;;;;;;10.17;70.88;99209.97;5152658;28;20065;-72
2022/01/03 08:18:51;;;;;;;11.15;1.83;;;;;;;11.10;68.90;99245.81;5162046;28;20046;-70
2022/01/03 08:21:41;;;;;;;12.02;1.90;;;;;;;11.23;69.08;99241.88;5158880;28;20058;-75
2022/01/03 08:24:31;;;;;;;13.02;1.90;;;;;;;10.80;70.81;99229.88;5161886;28;20050;-72
2022/01/03 08:27:22;;;;;;;16.73;1.98;;;;;;;11.16;70.03;99224.84;5158764;28;20655;-72
2022/01/03 08:30:12;;;;;;;13.73;2.13;;;;;;;11.07;68.96;99215.06;5162118;28;20157;-70
2022/01/03 08:33:03;;;;;;;15.02;2.22;;;;;;;11.12;68.74;99222.59;5162065;28;20189;-70
2022/01/03 08:35:53;;;;;;;11.60;2.08;;;;;;;11.28;69.08;99218.38;5160173;28;20045;-72
2022/01/03 08:38:43;;;;;;;16.85;2.47;;;;;;;10.96;69.46;99231.97;5161310;28;20571;-73
2022/01/03 08:41:33;;;;;;;12.73;2.05;;;;;;;11.29;69.33;99243.97;5144810;28;20122;-67
2022/01/03 08:44:23;;;;;;;14.82;2.25;;;;;;;11.00;69.30;99256.41;5161721;28;20428;-69
2022/01/03 08:47:13;;;;;;;14.57;2.30;;;;;;;11.44;68.87;99249.66;5162639;28;20564;-68
2022/01/03 08:50:05;;;;;;;15.57;2.33;;;;;;;11.70;68.30;99241.91;5161148;28;20057;-69
2022/01/03 08:52:55;;;;;;;13.65;1.50;;;;;;;11.85;66.98;99242.28;5151019;28;20189;-70
2022/01/03 08:55:45;;;;;;;14.82;2.40;;;;;;;11.71;67.58;99251.53;5158697;28;20049;-70
2022/01/03 08:58:36;;;;;;;15.60;1.90;;;;;;;11.84;67.76;99230.00;5158705;28;20076;-68
2022/01/03 09:01:26;;;;;;;10.38;2.15;;;;;;;11.66;68.10;99231.72;5150750;28;20124;-68
2022/01/03 09:04:16;;;;;;;12.35;2.03;;;;;;;11.70;68.66;99243.72;5156123;28;20054;-68
2022/01/03 09:07:07;;;;;;;13.05;2.25;;;;;;;11.81;67.29;99235.56;5152717;28;20057;-67
2022/01/03 09:09:56;;;;;;;11.65;2.75;;;;;;;11.81;67.07;99219.63;5140303;28;20053;-68
2022/01/03 09:12:48;;;;;;;15.38;2.13;;;;;;;12.43;65.56;99235.84;5156537;28;20061;-69
2022/01/03 09:15:40;;;;;;;18.92;2.78;;;;;;;11.83;67.89;99238.09;5155966;28;20595;-69
2022/01/03 09:18:35;;;;;;;12.70;2.58;;;;;;;11.47;68.90;99233.44;5146345;28;20197;-68
2022/01/03 09:21:25;;;;;;;19.63;2.65;;;;;;;11.54;68.40;99225.72;5161402;28;20053;-70
2022/01/03 09:24:42;;;;;;;15.02;2.70;;;;;;;11.48;69.15;99224.47;5157250;28;20045;-68
2022/01/03 09:30:41;;;;;;;14.13;2.55;;;;;;;11.40;69.21;99220.88;5163255;28;20120;-66
2022/01/03 09:33:32;;;;;;;21.77;3.28;;;;;;;11.55;68.82;99206.16;5159657;28;20050;-66
2022/01/03 09:36:23;;;;;;;20.42;2.88;;;;;;;11.48;68.87;99202.41;5161152;28;20574;-67
2022/01/03 09:39:13;;;;;;;10.55;2.50;;;;;;;11.14;70.57;99210.88;5158784;28;20523;-69
2022/01/03 09:42:07;;;;;;;22.77;2.67;;;;;;;11.21;69.39;99213.78;5158900;28;20759;-68
2022/01/03 09:45:01;;;;;;;19.80;3.22;;;;;;;10.76;70.98;99195.81;5162866;28;20084;-68
2022/01/03 09:47:54;;;;;;;14.18;3.00;;;;;;;11.44;69.24;99214.31;5159880;28;20057;-68
2022/01/03 09:50:45;;;;;;;16.33;2.75;;;;;;;11.37;68.56;99210.56;5160880;28;20077;-68
2022/01/03 09:53:36;;;;;;;15.20;3.00;;;;;;;11.63;67.54;99221.38;5160159;28;20038;-70
2022/01/03 09:56:30;;;;;;;11.85;2.13;;;;;;;12.00;66.43;99218.72;5160694;28;20417;-70
2022/01/03 09:59:20;;;;;;;;;;;;;;;12.16;66.15;99220.75;5142013;28;20129;-70
2022/01/03 10:02:13;;;;;;;13.73;2.97;;;;;;;11.85;67.37;99218.38;5154445;28;19930;-68
2022/01/03 10:05:05;;;;;;;13.65;2.33;;;;;;;12.11;64.97;99215.03;5159563;28;20053;-68
2022/01/03 10:07:56;;;;;;;15.88;2.60;;;;;;;12.19;64.51;99213.31;5156228;28;20035;-68
2022/01/03 10:10:46;;;;;;;15.95;2.88;;;;;;;12.11;66.29;99213.22;5159688;28;20496;-69
2022/01/03 10:13:36;;;;;;;16.38;2.80;;;;;;;12.13;66.64;99221.06;5158449;28;20056;-69
2022/01/03 10:16:28;;;;;;;14.05;2.42;;;;;;;12.36;65.78;99213.50;5160225;28;20535;-70
2022/01/03 10:20:12;;;;;;;10.60;2.30;;;;;;;12.28;65.32;99197.44;5159638;28;20177;-69
2022/01/03 10:23:10;;;;;;;16.10;3.90;;;;;;;12.64;64.41;99207.13;5132615;28;20053;-69
2022/01/03 10:26:21;;;;;;;35.33;11.55;;;;;;;12.74;64.30;99200.91;5154048;28;20057;-69
2022/01/03 10:29:20;;;;;;;10.40;2.40;;;;;;;12.79;64.03;99185.31;5156614;28;20571;-68
2022/01/03 10:32:11;;;;;;;11.30;2.75;;;;;;;12.19;65.93;99181.41;5158113;28;20236;-68
2022/01/03 10:35:15;;;;;;;12.95;2.55;;;;;;;12.39;64.99;99191.94;5137088;28;20065;-68
2022/01/03 10:38:06;;;;;;;12.57;2.45;;;;;;;12.35;64.99;99196.72;5157899;28;20070;-70
2022/01/03 10:41:11;;;;;;;13.02;2.33;;;;;;;12.65;63.44;99200.00;5159325;28;20053;-70
2022/01/03 10:44:01;;;;;;;10.50;2.20;;;;;;;12.45;64.55;99186.03;5159459;28;20111;-69
2022/01/03 10:46:52;;;;;;;12.07;2.70;;;;;;;12.84;62.97;99191.00;5163871;28;20079;-68
2022/01/03 10:49:45;;;;;;;11.18;2.45;;;;;;;12.77;63.63;99147.38;5157022;28;20125;-69
2022/01/03 10:52:39;;;;;;;12.07;2.67;;;;;;;13.16;62.96;99180.63;5158423;28;20189;-69
2022/01/03 10:55:36;;;;;;;9.07;2.38;;;;;;;12.53;64.01;99146.19;5161831;28;20049;-70
2022/01/03 10:58:33;;;;;;;21.90;10.13;;;;;;;12.71;64.39;99159.47;5159495;28;20118;-69
2022/01/03 11:01:26;;;;;;;20.52;6.15;;;;;;;13.07;62.96;99175.38;5158117;28;20057;-69
2022/01/03 11:04:54;;;;;;;12.32;2.60;;;;;;;12.96;63.24;99173.81;5160167;28;20053;-68
2022/01/03 11:10:44;;;;;;;15.75;2.42;;;;;;;12.98;63.10;99160.34;5161362;28;20073;-68
2022/01/03 11:13:44;;;;;;;13.80;2.53;;;;;;;13.42;61.18;99158.53;5157031;28;20193;-69
2022/01/03 11:16:36;;;;;;;12.07;2.38;;;;;;;13.45;60.95;99155.53;5159235;28;20524;-68
2022/01/03 11:19:38;;;;;;;12.00;2.13;;;;;;;13.28;61.72;99151.94;5158619;28;20065;-69
2022/01/03 11:22:43;;;;;;;11.38;2.38;;;;;;;13.15;62.22;99131.03;5156683;28;20053;-70
2022/01/03 11:25:35;;;;;;;13.70;2.53;;;;;;;13.29;61.83;99148.28;5158470;28;20044;-70
2022/01/03 11:28:28;;;;;;;9.63;2.03;;;;;;;13.24;62.44;99131.06;5158427;28;20136;-70
2022/01/03 11:31:20;;;;;;;19.27;2.53;;;;;;;13.44;61.89;99131.72;5155761;28;20050;-71
2022/01/03 11:34:12;;;;;;;13.27;2.28;;;;;;;13.23;62.45;99130.25;5158953;28;20061;-68
2022/01/03 11:37:23;;;;;;;11.88;2.08;;;;;;;13.65;61.18;99134.00;5157832;28;20050;-67
2022/01/03 11:40:16;;;;;;;19.90;2.55;;;;;;;13.49;61.41;99124.91;5140242;28;20970;-68
2022/01/03 11:43:06;;;;;;;9.85;2.30;;;;;;;13.21;63.50;99123.38;5160064;28;20054;-68
2022/01/03 11:45:57;;;;;;;9.55;2.45;;;;;;;13.30;62.72;99120.66;5158967;28;20080;-67
2022/01/03 11:48:49;;;;;;;12.05;2.70;;;;;;;13.29;61.35;99107.50;5159909;28;20143;-68
2022/01/03 11:51:40;;;;;;;13.75;3.22;;;;;;;13.65;60.85;99115.34;5160734;28;20081;-69
2022/01/03 11:54:30;;;;;;;12.70;2.60;;;;;;;13.64;60.39;99111.81;5157561;28;20108;-69
2022/01/03 11:57:37;;;;;;;8.32;2.53;;;;;;;13.71;61.40;99109.34;5160684;28;20034;-67
2022/01/03 12:03:40;;;;;;;14.25;2.83;;;;;;;13.91;60.41;99094.78;5158046;28;20133;-69
2022/01/03 12:06:33;;;;;;;12.65;2.50;;;;;;;13.86;61.48;99089.09;5160102;28;20049;-70
2022/01/03 12:09:29;;;;;;;10.10;2.13;;;;;;;13.71;61.63;99088.03;5157650;28;20061;-71
2022/01/03 12:12:33;;;;;;;10.48;1.80;;;;;;;13.80;61.13;99092.41;5145903;28;20136;-69
2022/01/03 12:15:33;;;;;;;10.20;2.13;;;;;;;13.72;61.39;99063.91;5158844;28;20164;-68
2022/01/03 12:18:31;;;;;;;9.23;2.05;;;;;;;13.90;60.55;99073.59;5155208;28;20049;-69
2022/01/03 12:21:50;;;;;;;14.50;2.30;;;;;;;13.89;60.87;99078.09;5159089;28;20058;-68
2022/01/03 12:24:44;;;;;;;10.40;2.90;;;;;;;13.89;60.23;99075.44;5157770;28;20066;-69
2022/01/03 12:27:37;;;;;;;12.65;2.70;;;;;;;13.75;59.68;99068.06;5160279;28;20116;-69
2022/01/03 12:30:33;;;;;;;13.98;2.90;;;;;;;14.00;59.25;99055.63;5161619;28;20113;-67
2022/01/03 12:33:24;;;;;;;9.88;1.77;;;;;;;13.66;58.00;99056.56;5159665;28;20050;-69
2022/01/03 12:36:18;;;;;;;13.63;2.53;;;;;;;13.83;58.32;99044.94;5153864;28;20110;-69
2022/01/03 12:39:09;;;;;;;9.68;1.95;;;;;;;13.73;59.21;99040.75;5155912;28;20054;-67
2022/01/03 12:41:59;;;;;;;7.93;1.83;;;;;;;14.03;56.24;99039.31;5145706;28;20200;-67
2022/01/03 12:44:53;;;;;;;8.95;1.63;;;;;;;13.06;57.44;99041.47;5160238;28;20062;-69
2022/01/03 12:47:44;;;;;;;9.90;1.73;;;;;;;13.26;57.00;99027.94;5159310;28;20042;-67
2022/01/03 12:50:43;;;;;;;13.60;1.58;;;;;;;13.44;55.05;99033.16;5158177;28;20108;-69
2022/01/03 12:53:39;;;;;;;7.80;1.48;;;;;;;13.18;54.16;99020.72;5159469;28;20069;-67
2022/01/03 12:56:31;;;;;;;7.35;1.90;;;;;;;13.33;53.95;99026.31;5157989;28;20053;-68
2022/01/03 12:59:22;;;;;;;6.78;1.10;;;;;;;13.10;54.66;99016.19;5158285;28;20177;-68
2022/01/03 13:02:29;;;;;;;2.65;0.98;;;;;;;13.59;53.06;99015.56;5146084;28;20777;-68
2022/01/03 13:05:19;;;;;;;4.05;0.90;;;;;;;13.81;52.52;99000.81;5159860;28;20049;-67
2022/01/03 13:08:11;;;;;;;8.45;1.27;;;;;;;13.96;51.68;98991.16;5142589;28;20051;-68
2022/01/03 13:11:06;;;;;;;3.72;0.85;;;;;;;13.79;50.66;98989.47;5141270;28;20054;-67
2022/01/03 13:14:08;;;;;;;12.07;1.90;;;;;;;13.94;51.31;98987.81;5159069;28;20072;-71
2022/01/03 13:16:58;;;;;;;6.68;1.48;;;;;;;13.24;52.93;98980.16;5156130;28;20619;-71
2022/01/03 13:19:59;;;;;;;5.55;1.20;;;;;;;13.73;51.69;98980.28;5160343;28;20046;-67
2022/01/03 13:22:50;;;;;;;5.28;0.82;;;;;;;13.93;52.17;98982.66;5155564;28;20144;-68
2022/01/03 13:25:40;;;;;;;6.30;1.08;;;;;;;13.85;53.23;98947.00;5158460;28;20096;-71
2022/01/03 13:28:44;;;;;;;7.13;1.08;;;;;;;14.00;51.51;98944.47;5147511;28;20504;-68
2022/01/03 13:31:40;;;;;;;6.70;1.42;;;;;;;14.07;53.03;98947.31;5157989;28;20058;-70
2022/01/03 13:34:31;;;;;;;6.85;1.20;;;;;;;13.66;54.29;98954.47;5150145;28;20092;-70
2022/01/03 13:37:24;;;;;;;8.05;1.70;;;;;;;13.75;53.78;98945.50;5144678;28;20050;-70
2022/01/03 13:40:15;;;;;;;6.88;1.10;;;;;;;13.66;54.51;98947.31;5135268;28;20560;-76
2022/01/03 13:43:10;;;;;;;8.15;1.88;;;;;;;13.52;54.36;98935.47;5145258;28;20149;-73